sensor_id;sensor_type;location;lat;lon;timestamp;pressure;altitude;pressure_sealevel;temperature;humidity
61898;BME280;47850;50.274;18.908;2023-02-26T00:01:43;96894.17;;;-0.55;91.71
61898;BME280;47850;50.274;18.908;2023-02-26T00:04:11;96895.59;;;-0.56;91.60
61898;BME280;47850;50.274;18.908;2023-02-26T00:06:40;96899.89;;;-0.56;91.95
61898;BME280;47850;50.274;18.908;2023-02-26T00:09:28;96904.02;;;-0.57;91.93
61898;BME280;47850;50.274;18.908;2023-02-26T00:11:57;96906.69;;;-0.59;91.94
61898;BME280;47850;50.274;18.908;2023-02-26T00:14:26;96914.94;;;-0.60;91.87
61898;BME280;47850;50.274;18.908;2023-02-26T00:19:58;96920.46;;;-0.61;92.37
61898;BME280;47850;50.274;18.908;2023-02-26T00:22:27;96920.75;;;-0.64;92.24
61898;BME280;47850;50.274;18.908;2023-02-26T00:24:55;96926.59;;;-0.65;92.27
61898;BME280;47850;50.274;18.908;2023-02-26T00:27:22;96927.30;;;-0.65;92.12
61898;BME280;47850;50.274;18.908;2023-02-26T00:29:51;96921.36;;;-0.67;92.27
61898;BME280;47850;50.274;18.908;2023-02-26T00:32:19;96923.45;;;-0.69;92.29
61898;BME280;47850;50.274;18.908;2023-02-26T00:34:48;96921.39;;;-0.70;92.24
61898;BME280;47850;50.274;18.908;2023-02-26T00:42:50;96934.59;;;-0.76;92.23
61898;BME280;47850;50.274;18.908;2023-02-26T00:45:18;96936.10;;;-0.80;92.21
61898;BME280;47850;50.274;18.908;2023-02-26T00:50:23;96939.84;;;-0.87;91.98
61898;BME280;47850;50.274;18.908;2023-02-26T00:53:21;96940.48;;;-0.89;92.08
61898;BME280;47850;50.274;18.908;2023-02-26T00:55:51;96944.08;;;-0.91;92.04
61898;BME280;47850;50.274;18.908;2023-02-26T00:58:18;96948.02;;;-0.90;92.14
61898;BME280;47850;50.274;18.908;2023-02-26T01:00:46;96945.73;;;-0.90;92.20
61898;BME280;47850;50.274;18.908;2023-02-26T01:03:14;96949.95;;;-0.89;92.11
61898;BME280;47850;50.274;18.908;2023-02-26T01:05:43;96952.04;;;-0.88;91.96
61898;BME280;47850;50.274;18.908;2023-02-26T01:08:33;96954.82;;;-0.88;91.75
61898;BME280;47850;50.274;18.908;2023-02-26T01:11:05;96953.30;;;-0.86;91.59
61898;BME280;47850;50.274;18.908;2023-02-26T01:13:33;96958.61;;;-0.87;91.51
61898;BME280;47850;50.274;18.908;2023-02-26T01:16:04;96959.27;;;-0.87;91.35
61898;BME280;47850;50.274;18.908;2023-02-26T01:18:43;96958.95;;;-0.89;91.31
61898;BME280;47850;50.274;18.908;2023-02-26T01:21:19;96959.42;;;-0.89;91.14
61898;BME280;47850;50.274;18.908;2023-02-26T01:23:50;96961.58;;;-0.90;91.01
61898;BME280;47850;50.274;18.908;2023-02-26T01:26:25;96960.89;;;-0.91;90.96
61898;BME280;47850;50.274;18.908;2023-02-26T01:28:54;96962.44;;;-0.90;90.91
61898;BME280;47850;50.274;18.908;2023-02-26T01:34:17;96963.67;;;-0.91;90.66
61898;BME280;47850;50.274;18.908;2023-02-26T01:36:55;96964.75;;;-0.93;90.64
61898;BME280;47850;50.274;18.908;2023-02-26T01:39:29;96969.99;;;-0.95;90.43
61898;BME280;47850;50.274;18.908;2023-02-26T01:42:18;96969.35;;;-0.95;90.53
61898;BME280;47850;50.274;18.908;2023-02-26T01:45:06;96975.61;;;-0.95;90.75
61898;BME280;47850;50.274;18.908;2023-02-26T01:48:03;96979.36;;;-0.95;90.60
61898;BME280;47850;50.274;18.908;2023-02-26T01:50:34;96981.20;;;-0.99;90.27
61898;BME280;47850;50.274;18.908;2023-02-26T01:55:30;96997.16;;;-1.02;90.04
61898;BME280;47850;50.274;18.908;2023-02-26T01:57:59;97001.39;;;-1.04;90.24
61898;BME280;47850;50.274;18.908;2023-02-26T02:00:29;97004.39;;;-1.06;90.08
61898;BME280;47850;50.274;18.908;2023-02-26T02:02:58;97004.02;;;-1.07;90.10
61898;BME280;47850;50.274;18.908;2023-02-26T02:05:49;97004.56;;;-1.07;90.20
61898;BME280;47850;50.274;18.908;2023-02-26T02:08:19;97012.11;;;-1.07;90.09
61898;BME280;47850;50.274;18.908;2023-02-26T02:10:49;97011.48;;;-1.07;89.92
61898;BME280;47850;50.274;18.908;2023-02-26T02:13:39;97016.55;;;-1.07;90.01
61898;BME280;47850;50.274;18.908;2023-02-26T02:24:32;97040.09;;;-1.06;89.63
61898;BME280;47850;50.274;18.908;2023-02-26T02:27:08;97041.91;;;-1.05;89.54
61898;BME280;47850;50.274;18.908;2023-02-26T02:30:02;97046.02;;;-1.05;89.54
61898;BME280;47850;50.274;18.908;2023-02-26T02:32:47;97052.19;;;-1.07;89.18
61898;BME280;47850;50.274;18.908;2023-02-26T02:35:40;97055.98;;;-1.09;88.63
61898;BME280;47850;50.274;18.908;2023-02-26T02:38:15;97062.80;;;-1.11;88.24
61898;BME280;47850;50.274;18.908;2023-02-26T02:40:49;97066.59;;;-1.13;88.06
61898;BME280;47850;50.274;18.908;2023-02-26T02:43:21;97068.48;;;-1.15;87.62
61898;BME280;47850;50.274;18.908;2023-02-26T02:45:55;97072.70;;;-1.17;87.07
61898;BME280;47850;50.274;18.908;2023-02-26T02:50:59;97074.58;;;-1.19;87.23
61898;BME280;47850;50.274;18.908;2023-02-26T02:53:42;97074.84;;;-1.20;87.01
61898;BME280;47850;50.274;18.908;2023-02-26T02:56:15;97071.80;;;-1.22;86.74
61898;BME280;47850;50.274;18.908;2023-02-26T02:58:50;97068.48;;;-1.25;86.54
61898;BME280;47850;50.274;18.908;2023-02-26T03:01:21;97063.02;;;-1.28;86.61
61898;BME280;47850;50.274;18.908;2023-02-26T03:04:06;97063.57;;;-1.33;86.87
61898;BME280;47850;50.274;18.908;2023-02-26T03:06:35;97064.33;;;-1.36;86.73
61898;BME280;47850;50.274;18.908;2023-02-26T03:09:04;97068.71;;;-1.39;86.38
61898;BME280;47850;50.274;18.908;2023-02-26T03:11:33;97074.38;;;-1.41;86.33
61898;BME280;47850;50.274;18.908;2023-02-26T03:14:01;97076.80;;;-1.42;86.46
61898;BME280;47850;50.274;18.908;2023-02-26T03:17:48;97077.71;;;-1.44;86.34
61898;BME280;47850;50.274;18.908;2023-02-26T03:25:15;97094.17;;;-1.44;85.67
61898;BME280;47850;50.274;18.908;2023-02-26T03:28:12;97104.33;;;-1.45;85.72
61898;BME280;47850;50.274;18.908;2023-02-26T03:33:37;97118.66;;;-1.46;85.55
61898;BME280;47850;50.274;18.908;2023-02-26T03:36:16;97125.77;;;-1.46;85.37
61898;BME280;47850;50.274;18.908;2023-02-26T03:38:51;97130.96;;;-1.46;85.49
61898;BME280;47850;50.274;18.908;2023-02-26T03:41:32;97139.04;;;-1.46;85.54
61898;BME280;47850;50.274;18.908;2023-02-26T03:44:21;97145.63;;;-1.47;85.59
61898;BME280;47850;50.274;18.908;2023-02-26T03:46:54;97148.89;;;-1.47;85.44
61898;BME280;47850;50.274;18.908;2023-02-26T03:49:28;97154.35;;;-1.47;85.35
61898;BME280;47850;50.274;18.908;2023-02-26T03:51:59;97154.56;;;-1.47;85.29
61898;BME280;47850;50.274;18.908;2023-02-26T03:54:35;97158.62;;;-1.47;85.15
61898;BME280;47850;50.274;18.908;2023-02-26T03:57:05;97157.50;;;-1.49;84.97
61898;BME280;47850;50.274;18.908;2023-02-26T03:59:33;97163.97;;;-1.48;84.95
61898;BME280;47850;50.274;18.908;2023-02-26T04:02:10;97164.34;;;-1.50;84.87
61898;BME280;47850;50.274;18.908;2023-02-26T04:04:49;97166.52;;;-1.51;84.72
61898;BME280;47850;50.274;18.908;2023-02-26T04:07:19;97173.42;;;-1.53;84.64
61898;BME280;47850;50.274;18.908;2023-02-26T04:09:50;97174.75;;;-1.55;84.50
61898;BME280;47850;50.274;18.908;2023-02-26T04:12:23;97176.04;;;-1.60;84.29
61898;BME280;47850;50.274;18.908;2023-02-26T04:14:52;97173.73;;;-1.65;84.31
61898;BME280;47850;50.274;18.908;2023-02-26T04:17:20;97175.95;;;-1.73;84.09
61898;BME280;47850;50.274;18.908;2023-02-26T04:19:48;97183.95;;;-1.82;84.01
61898;BME280;47850;50.274;18.908;2023-02-26T04:22:16;97191.36;;;-1.88;84.00
61898;BME280;47850;50.274;18.908;2023-02-26T04:24:44;97198.34;;;-1.95;83.79
61898;BME280;47850;50.274;18.908;2023-02-26T04:27:11;97197.84;;;-2.00;83.78
61898;BME280;47850;50.274;18.908;2023-02-26T04:29:39;97196.66;;;-2.02;83.79
61898;BME280;47850;50.274;18.908;2023-02-26T04:32:07;97201.89;;;-2.04;84.05
61898;BME280;47850;50.274;18.908;2023-02-26T04:34:35;97205.02;;;-2.05;84.02
61898;BME280;47850;50.274;18.908;2023-02-26T04:37:03;97206.20;;;-2.08;84.32
61898;BME280;47850;50.274;18.908;2023-02-26T04:39:31;97207.48;;;-2.07;84.52
61898;BME280;47850;50.274;18.908;2023-02-26T04:41:58;97212.07;;;-2.07;84.50
61898;BME280;47850;50.274;18.908;2023-02-26T04:44:26;97220.30;;;-2.08;84.70
61898;BME280;47850;50.274;18.908;2023-02-26T04:46:54;97227.66;;;-2.08;84.62
61898;BME280;47850;50.274;18.908;2023-02-26T04:49:22;97230.83;;;-2.08;84.80
61898;BME280;47850;50.274;18.908;2023-02-26T04:51:50;97231.04;;;-2.07;85.12
61898;BME280;47850;50.274;18.908;2023-02-26T04:54:18;97234.05;;;-2.05;85.45
61898;BME280;47850;50.274;18.908;2023-02-26T04:56:46;97236.29;;;-2.04;85.50
61898;BME280;47850;50.274;18.908;2023-02-26T04:59:14;97240.74;;;-2.03;85.37
61898;BME280;47850;50.274;18.908;2023-02-26T05:01:42;97238.43;;;-2.03;85.36
61898;BME280;47850;50.274;18.908;2023-02-26T05:04:09;97245.92;;;-2.03;85.34
61898;BME280;47850;50.274;18.908;2023-02-26T05:06:37;97243.79;;;-2.02;85.48
61898;BME280;47850;50.274;18.908;2023-02-26T05:09:05;97250.15;;;-2.02;85.43
61898;BME280;47850;50.274;18.908;2023-02-26T05:11:33;97254.26;;;-2.02;85.41
61898;BME280;47850;50.274;18.908;2023-02-26T05:14:01;97257.36;;;-2.02;85.28
61898;BME280;47850;50.274;18.908;2023-02-26T05:16:28;97261.10;;;-2.02;85.22
61898;BME280;47850;50.274;18.908;2023-02-26T05:18:56;97264.67;;;-2.01;85.21
61898;BME280;47850;50.274;18.908;2023-02-26T05:21:24;97264.73;;;-2.01;85.17
61898;BME280;47850;50.274;18.908;2023-02-26T05:23:52;97268.14;;;-2.01;85.11
61898;BME280;47850;50.274;18.908;2023-02-26T05:26:20;97276.08;;;-2.00;85.22
61898;BME280;47850;50.274;18.908;2023-02-26T05:28:48;97286.00;;;-2.01;85.07
61898;BME280;47850;50.274;18.908;2023-02-26T05:31:16;97291.08;;;-2.03;84.90
61898;BME280;47850;50.274;18.908;2023-02-26T05:33:44;97298.11;;;-2.03;84.90
61898;BME280;47850;50.274;18.908;2023-02-26T05:36:12;97301.64;;;-2.04;84.93
61898;BME280;47850;50.274;18.908;2023-02-26T05:38:40;97306.81;;;-2.04;85.05
61898;BME280;47850;50.274;18.908;2023-02-26T05:41:08;97310.19;;;-2.04;85.01
61898;BME280;47850;50.274;18.908;2023-02-26T05:43:35;97317.27;;;-2.03;84.86
61898;BME280;47850;50.274;18.908;2023-02-26T05:46:04;97319.61;;;-2.03;84.96
61898;BME280;47850;50.274;18.908;2023-02-26T05:48:32;97326.35;;;-2.02;85.07
61898;BME280;47850;50.274;18.908;2023-02-26T05:51:00;97334.96;;;-1.99;85.38
61898;BME280;47850;50.274;18.908;2023-02-26T05:53:29;97339.41;;;-1.97;85.13
61898;BME280;47850;50.274;18.908;2023-02-26T05:55:57;97347.23;;;-1.95;85.36
61898;BME280;47850;50.274;18.908;2023-02-26T05:58:25;97353.55;;;-1.93;85.22
61898;BME280;47850;50.274;18.908;2023-02-26T06:00:53;97361.69;;;-1.91;84.99
61898;BME280;47850;50.274;18.908;2023-02-26T06:03:21;97365.27;;;-1.90;85.21
61898;BME280;47850;50.274;18.908;2023-02-26T06:05:48;97365.70;;;-1.89;85.32
61898;BME280;47850;50.274;18.908;2023-02-26T06:08:16;97368.33;;;-1.86;85.35
61898;BME280;47850;50.274;18.908;2023-02-26T06:10:44;97371.92;;;-1.85;85.44
61898;BME280;47850;50.274;18.908;2023-02-26T06:13:12;97377.28;;;-1.82;85.34
61898;BME280;47850;50.274;18.908;2023-02-26T06:15:40;97382.58;;;-1.81;85.20
61898;BME280;47850;50.274;18.908;2023-02-26T06:18:07;97388.34;;;-1.81;85.13
61898;BME280;47850;50.274;18.908;2023-02-26T06:20:35;97389.48;;;-1.80;85.26
61898;BME280;47850;50.274;18.908;2023-02-26T06:23:03;97393.94;;;-1.79;85.38
61898;BME280;47850;50.274;18.908;2023-02-26T06:25:31;97397.48;;;-1.76;85.31
61898;BME280;47850;50.274;18.908;2023-02-26T06:27:59;97403.05;;;-1.73;85.45
61898;BME280;47850;50.274;18.908;2023-02-26T06:30:27;97404.67;;;-1.71;85.57
61898;BME280;47850;50.274;18.908;2023-02-26T06:32:54;97410.12;;;-1.70;85.33
61898;BME280;47850;50.274;18.908;2023-02-26T06:35:22;97412.39;;;-1.68;85.36
61898;BME280;47850;50.274;18.908;2023-02-26T06:37:51;97415.27;;;-1.66;85.52
61898;BME280;47850;50.274;18.908;2023-02-26T06:40:19;97418.26;;;-1.63;85.32
61898;BME280;47850;50.274;18.908;2023-02-26T06:42:46;97427.25;;;-1.58;85.47
61898;BME280;47850;50.274;18.908;2023-02-26T06:45:14;97423.63;;;-1.55;85.46
61898;BME280;47850;50.274;18.908;2023-02-26T06:47:42;97427.92;;;-1.52;85.37
61898;BME280;47850;50.274;18.908;2023-02-26T06:50:11;97431.23;;;-1.47;85.21
61898;BME280;47850;50.274;18.908;2023-02-26T06:52:38;97434.73;;;-1.42;85.26
61898;BME280;47850;50.274;18.908;2023-02-26T06:55:07;97439.41;;;-1.36;85.15
61898;BME280;47850;50.274;18.908;2023-02-26T06:57:35;97446.23;;;-1.32;85.05
61898;BME280;47850;50.274;18.908;2023-02-26T07:00:05;97447.15;;;-1.29;84.79
61898;BME280;47850;50.274;18.908;2023-02-26T07:02:33;97449.84;;;-1.25;84.55
61898;BME280;47850;50.274;18.908;2023-02-26T07:05:01;97449.16;;;-1.22;84.68
61898;BME280;47850;50.274;18.908;2023-02-26T07:07:28;97453.63;;;-1.15;84.63
61898;BME280;47850;50.274;18.908;2023-02-26T07:09:56;97457.85;;;-1.07;84.48
61898;BME280;47850;50.274;18.908;2023-02-26T07:12:24;97461.02;;;-1.00;84.37
61898;BME280;47850;50.274;18.908;2023-02-26T07:14:52;97462.28;;;-0.95;84.33
61898;BME280;47850;50.274;18.908;2023-02-26T07:17:19;97463.59;;;-0.89;84.27
61898;BME280;47850;50.274;18.908;2023-02-26T07:19:49;97469.77;;;-0.84;84.14
61898;BME280;47850;50.274;18.908;2023-02-26T07:22:18;97471.02;;;-0.81;84.10
61898;BME280;47850;50.274;18.908;2023-02-26T07:24:46;97472.95;;;-0.78;84.04
61898;BME280;47850;50.274;18.908;2023-02-26T07:27:14;97472.41;;;-0.79;83.61
61898;BME280;47850;50.274;18.908;2023-02-26T07:29:42;97474.60;;;-0.80;83.53
61898;BME280;47850;50.274;18.908;2023-02-26T07:32:10;97480.80;;;-0.82;83.41
61898;BME280;47850;50.274;18.908;2023-02-26T07:34:38;97487.44;;;-0.84;83.49
61898;BME280;47850;50.274;18.908;2023-02-26T07:37:06;97494.41;;;-0.81;83.68
61898;BME280;47850;50.274;18.908;2023-02-26T07:39:33;97490.52;;;-0.77;83.79
61898;BME280;47850;50.274;18.908;2023-02-26T07:42:01;97484.98;;;-0.69;83.80
61898;BME280;47850;50.274;18.908;2023-02-26T07:44:29;97480.08;;;-0.59;83.89
61898;BME280;47850;50.274;18.908;2023-02-26T07:46:57;97483.09;;;-0.48;83.71
61898;BME280;47850;50.274;18.908;2023-02-26T07:49:25;97484.15;;;-0.36;83.50
61898;BME280;47850;50.274;18.908;2023-02-26T07:51:52;97489.31;;;-0.22;83.16
61898;BME280;47850;50.274;18.908;2023-02-26T07:54:20;97493.95;;;-0.09;82.93
61898;BME280;47850;50.274;18.908;2023-02-26T07:56:48;97499.15;;;0.01;82.58
61898;BME280;47850;50.274;18.908;2023-02-26T07:59:17;97506.14;;;0.06;81.92
61898;BME280;47850;50.274;18.908;2023-02-26T08:01:44;97512.50;;;0.07;81.40
61898;BME280;47850;50.274;18.908;2023-02-26T08:04:12;97519.05;;;0.10;81.33
61898;BME280;47850;50.274;18.908;2023-02-26T08:06:40;97520.20;;;0.14;81.19
61898;BME280;47850;50.274;18.908;2023-02-26T08:09:08;97521.31;;;0.21;80.91
61898;BME280;47850;50.274;18.908;2023-02-26T08:11:36;97529.63;;;0.20;79.28
61898;BME280;47850;50.274;18.908;2023-02-26T08:14:06;97532.83;;;0.10;78.98
61898;BME280;47850;50.274;18.908;2023-02-26T08:16:34;97538.66;;;-0.07;79.13
61898;BME280;47850;50.274;18.908;2023-02-26T08:19:02;97541.09;;;-0.22;79.01
61898;BME280;47850;50.274;18.908;2023-02-26T08:21:30;97543.99;;;-0.38;79.21
61898;BME280;47850;50.274;18.908;2023-02-26T08:23:58;97540.48;;;-0.47;80.23
61898;BME280;47850;50.274;18.908;2023-02-26T08:26:26;97544.89;;;-0.58;80.83
61898;BME280;47850;50.274;18.908;2023-02-26T08:28:54;97547.14;;;-0.69;81.67
61898;BME280;47850;50.274;18.908;2023-02-26T08:31:21;97543.56;;;-0.68;82.34
61898;BME280;47850;50.274;18.908;2023-02-26T08:33:49;97545.38;;;-0.56;82.18
61898;BME280;47850;50.274;18.908;2023-02-26T08:36:17;97543.70;;;-0.43;81.72
61898;BME280;47850;50.274;18.908;2023-02-26T08:38:45;97547.78;;;-0.26;81.59
61898;BME280;47850;50.274;18.908;2023-02-26T08:41:13;97546.55;;;-0.07;81.08
61898;BME280;47850;50.274;18.908;2023-02-26T08:43:41;97549.35;;;0.16;80.51
61898;BME280;47850;50.274;18.908;2023-02-26T08:46:08;97551.08;;;0.34;79.47
61898;BME280;47850;50.274;18.908;2023-02-26T08:48:36;97556.73;;;0.51;79.14
61898;BME280;47850;50.274;18.908;2023-02-26T08:51:04;97560.52;;;0.66;78.77
61898;BME280;47850;50.274;18.908;2023-02-26T08:53:32;97562.71;;;0.77;78.23
61898;BME280;47850;50.274;18.908;2023-02-26T08:56:00;97563.98;;;0.89;78.04
61898;BME280;47850;50.274;18.908;2023-02-26T08:58:28;97564.40;;;0.98;77.36
61898;BME280;47850;50.274;18.908;2023-02-26T09:00:55;97566.50;;;0.98;76.36
61898;BME280;47850;50.274;18.908;2023-02-26T09:03:23;97564.09;;;0.87;75.65
61898;BME280;47850;50.274;18.908;2023-02-26T09:05:51;97565.40;;;0.75;74.87
61898;BME280;47850;50.274;18.908;2023-02-26T09:08:19;97572.12;;;0.67;74.38
61898;BME280;47850;50.274;18.908;2023-02-26T09:10:47;97579.63;;;0.64;73.76
61898;BME280;47850;50.274;18.908;2023-02-26T09:13:15;97582.48;;;0.66;73.07
61898;BME280;47850;50.274;18.908;2023-02-26T09:15:43;97585.80;;;0.72;71.89
61898;BME280;47850;50.274;18.908;2023-02-26T09:18:11;97595.50;;;0.82;71.15
61898;BME280;47850;50.274;18.908;2023-02-26T09:20:42;97596.37;;;0.93;68.55
61898;BME280;47850;50.274;18.908;2023-02-26T09:23:10;97598.34;;;0.98;66.94
61898;BME280;47850;50.274;18.908;2023-02-26T09:25:38;97605.41;;;1.09;67.64
61898;BME280;47850;50.274;18.908;2023-02-26T09:28:06;97605.16;;;1.25;67.03
61898;BME280;47850;50.274;18.908;2023-02-26T09:30:34;97607.55;;;1.40;66.45
61898;BME280;47850;50.274;18.908;2023-02-26T09:33:02;97608.68;;;1.55;67.55
61898;BME280;47850;50.274;18.908;2023-02-26T09:35:30;97608.73;;;1.68;66.48
61898;BME280;47850;50.274;18.908;2023-02-26T09:37:57;97609.77;;;1.80;66.46
61898;BME280;47850;50.274;18.908;2023-02-26T09:40:46;97612.50;;;1.93;66.59
61898;BME280;47850;50.274;18.908;2023-02-26T09:48:51;97624.98;;;2.50;64.77
61898;BME280;47850;50.274;18.908;2023-02-26T09:51:25;97628.72;;;2.69;63.43
61898;BME280;47850;50.274;18.908;2023-02-26T09:53:53;97625.74;;;2.63;62.55
61898;BME280;47850;50.274;18.908;2023-02-26T09:56:23;97633.43;;;2.48;63.80
61898;BME280;47850;50.274;18.908;2023-02-26T09:58:52;97638.73;;;2.36;64.15
61898;BME280;47850;50.274;18.908;2023-02-26T10:04:15;97649.98;;;1.93;66.25
61898;BME280;47850;50.274;18.908;2023-02-26T10:12:33;97672.97;;;0.81;72.11
61898;BME280;47850;50.274;18.908;2023-02-26T10:23:01;97692.25;;;0.86;74.93
61898;BME280;47850;50.274;18.908;2023-02-26T10:34:50;97695.56;;;1.67;71.80
61898;BME280;47850;50.274;18.908;2023-02-26T10:37:47;97702.32;;;1.43;72.30
61898;BME280;47850;50.274;18.908;2023-02-26T10:43:18;97716.64;;;1.03;72.85
61898;BME280;47850;50.274;18.908;2023-02-26T10:48:41;97727.91;;;0.88;72.34
61898;BME280;47850;50.274;18.908;2023-02-26T10:51:15;97732.40;;;0.85;71.06
61898;BME280;47850;50.274;18.908;2023-02-26T10:53:52;97731.54;;;0.84;69.37
61898;BME280;47850;50.274;18.908;2023-02-26T10:56:25;97733.20;;;0.82;67.98
61898;BME280;47850;50.274;18.908;2023-02-26T10:58:54;97736.21;;;0.85;67.72
61898;BME280;47850;50.274;18.908;2023-02-26T11:01:26;97741.43;;;0.89;66.64
61898;BME280;47850;50.274;18.908;2023-02-26T11:04:05;97744.13;;;0.97;66.42
61898;BME280;47850;50.274;18.908;2023-02-26T11:06:48;97745.85;;;1.00;66.10
61898;BME280;47850;50.274;18.908;2023-02-26T11:09:24;97747.09;;;0.99;66.38
61898;BME280;47850;50.274;18.908;2023-02-26T11:11:54;97753.14;;;0.95;66.60
61898;BME280;47850;50.274;18.908;2023-02-26T11:14:24;97754.69;;;0.86;66.04
61898;BME280;47850;50.274;18.908;2023-02-26T11:16:57;97759.55;;;0.72;65.69
61898;BME280;47850;50.274;18.908;2023-02-26T11:19:32;97763.43;;;0.56;66.10
61898;BME280;47850;50.274;18.908;2023-02-26T11:22:03;97763.01;;;0.41;66.70
61898;BME280;47850;50.274;18.908;2023-02-26T11:24:46;97766.35;;;0.31;67.72
61898;BME280;47850;50.274;18.908;2023-02-26T11:27:25;97773.23;;;0.22;68.37
61898;BME280;47850;50.274;18.908;2023-02-26T11:29:57;97776.92;;;0.09;69.11
61898;BME280;47850;50.274;18.908;2023-02-26T11:32:44;97779.94;;;-0.00;69.99
61898;BME280;47850;50.274;18.908;2023-02-26T11:35:18;97782.84;;;-0.06;70.82
61898;BME280;47850;50.274;18.908;2023-02-26T11:37:47;97781.89;;;-0.05;71.38
61898;BME280;47850;50.274;18.908;2023-02-26T11:40:25;97783.36;;;0.00;71.88
61898;BME280;47850;50.274;18.908;2023-02-26T11:42:57;97786.31;;;0.09;72.32
61898;BME280;47850;50.274;18.908;2023-02-26T11:45:26;97789.81;;;0.24;72.75
61898;BME280;47850;50.274;18.908;2023-02-26T11:48:14;97795.59;;;0.34;72.79
61898;BME280;47850;50.274;18.908;2023-02-26T11:50:47;97793.96;;;0.40;72.73
61898;BME280;47850;50.274;18.908;2023-02-26T11:53:23;97795.55;;;0.49;73.06
61898;BME280;47850;50.274;18.908;2023-02-26T11:55:52;97794.93;;;0.57;73.23
61898;BME280;47850;50.274;18.908;2023-02-26T11:58:22;97797.11;;;0.67;73.13
61898;BME280;47850;50.274;18.908;2023-02-26T12:00:52;97801.75;;;0.72;71.86
61898;BME280;47850;50.274;18.908;2023-02-26T12:03:24;97805.18;;;0.74;71.54
61898;BME280;47850;50.274;18.908;2023-02-26T12:05:53;97804.66;;;0.77;70.85
61898;BME280;47850;50.274;18.908;2023-02-26T12:08:29;97813.09;;;0.78;70.70
61898;BME280;47850;50.274;18.908;2023-02-26T12:25:12;97837.19;;;0.78;70.03
61898;BME280;47850;50.274;18.908;2023-02-26T12:36:45;97849.33;;;0.68;69.28
61898;BME280;47850;50.274;18.908;2023-02-26T12:55:29;97871.28;;;0.07;69.59
61898;BME280;47850;50.274;18.908;2023-02-26T12:58:22;97877.23;;;-0.02;70.15
61898;BME280;47850;50.274;18.908;2023-02-26T13:06:51;97891.17;;;-0.17;72.12
61898;BME280;47850;50.274;18.908;2023-02-26T13:19:50;97889.05;;;-0.40;74.54
61898;BME280;47850;50.274;18.908;2023-02-26T13:22:28;97892.41;;;-0.41;74.73
61898;BME280;47850;50.274;18.908;2023-02-26T13:25:01;97892.41;;;-0.42;74.75
61898;BME280;47850;50.274;18.908;2023-02-26T13:27:36;97899.93;;;-0.40;75.05
61898;BME280;47850;50.274;18.908;2023-02-26T13:32:40;97907.06;;;-0.39;74.42
61898;BME280;47850;50.274;18.908;2023-02-26T13:37:57;97915.59;;;-0.38;73.83
61898;BME280;47850;50.274;18.908;2023-02-26T13:40:45;97918.94;;;-0.41;73.04
61898;BME280;47850;50.274;18.908;2023-02-26T13:53:59;97939.05;;;-0.33;73.11
61898;BME280;47850;50.274;18.908;2023-02-26T13:59:03;97942.55;;;-0.33;72.02
61898;BME280;47850;50.274;18.908;2023-02-26T14:04:47;97949.71;;;-0.34;71.85
61898;BME280;47850;50.274;18.908;2023-02-26T14:07:16;97950.69;;;-0.32;72.15
61898;BME280;47850;50.274;18.908;2023-02-26T14:09:54;97950.45;;;-0.28;72.29
61898;BME280;47850;50.274;18.908;2023-02-26T14:12:36;97955.66;;;-0.27;72.41
61898;BME280;47850;50.274;18.908;2023-02-26T14:17:50;97963.60;;;-0.27;72.99
61898;BME280;47850;50.274;18.908;2023-02-26T14:20:27;97969.41;;;-0.25;72.87
61898;BME280;47850;50.274;18.908;2023-02-26T14:25:50;97972.27;;;-0.22;72.42
61898;BME280;47850;50.274;18.908;2023-02-26T14:33:31;97975.01;;;-0.23;72.10
61898;BME280;47850;50.274;18.908;2023-02-26T14:36:04;97979.70;;;-0.24;72.38
61898;BME280;47850;50.274;18.908;2023-02-26T14:38:37;97978.91;;;-0.28;72.34
61898;BME280;47850;50.274;18.908;2023-02-26T14:41:30;97982.73;;;-0.33;72.28
61898;BME280;47850;50.274;18.908;2023-02-26T14:44:02;97984.30;;;-0.38;72.55
61898;BME280;47850;50.274;18.908;2023-02-26T14:46:33;97989.41;;;-0.45;72.47
61898;BME280;47850;50.274;18.908;2023-02-26T14:49:03;97988.69;;;-0.52;72.75
61898;BME280;47850;50.274;18.908;2023-02-26T14:55:02;97999.44;;;-0.64;73.28
61898;BME280;47850;50.274;18.908;2023-02-26T15:00:56;98011.84;;;-0.76;73.88
61898;BME280;47850;50.274;18.908;2023-02-26T15:14:37;98023.83;;;-0.80;74.77
61898;BME280;47850;50.274;18.908;2023-02-26T15:20:03;98035.30;;;-0.84;75.02
61898;BME280;47850;50.274;18.908;2023-02-26T15:25:47;98042.05;;;-0.83;75.51
61898;BME280;47850;50.274;18.908;2023-02-26T15:28:37;98047.25;;;-0.84;75.51
61898;BME280;47850;50.274;18.908;2023-02-26T15:31:09;98048.56;;;-0.89;75.32
61898;BME280;47850;50.274;18.908;2023-02-26T15:33:37;98053.73;;;-0.90;75.61
61898;BME280;47850;50.274;18.908;2023-02-26T15:36:12;98056.73;;;-0.90;75.99
61898;BME280;47850;50.274;18.908;2023-02-26T15:38:42;98056.95;;;-0.91;75.87
61898;BME280;47850;50.274;18.908;2023-02-26T15:41:10;98059.92;;;-0.92;75.86
61898;BME280;47850;50.274;18.908;2023-02-26T15:44:29;98065.27;;;-0.93;75.69
61898;BME280;47850;50.274;18.908;2023-02-26T15:46:41;98069.06;;;-0.93;75.84
61898;BME280;47850;50.274;18.908;2023-02-26T15:49:38;98077.52;;;-0.91;75.87
61898;BME280;47850;50.274;18.908;2023-02-26T15:52:11;98079.23;;;-0.90;75.99
61898;BME280;47850;50.274;18.908;2023-02-26T15:54:56;98078.77;;;-0.89;76.26
61898;BME280;47850;50.274;18.908;2023-02-26T15:57:26;98080.87;;;-0.88;76.50
61898;BME280;47850;50.274;18.908;2023-02-26T16:00:24;98082.20;;;-0.88;76.45
61898;BME280;47850;50.274;18.908;2023-02-26T16:02:53;98091.52;;;-0.88;76.63
61898;BME280;47850;50.274;18.908;2023-02-26T16:05:25;98091.92;;;-0.90;76.63
61898;BME280;47850;50.274;18.908;2023-02-26T16:07:54;98098.87;;;-0.91;76.82
61898;BME280;47850;50.274;18.908;2023-02-26T16:10:40;98095.06;;;-0.92;76.92
61898;BME280;47850;50.274;18.908;2023-02-26T16:13:14;98101.20;;;-0.93;77.34
61898;BME280;47850;50.274;18.908;2023-02-26T16:15:46;98099.33;;;-0.96;77.61
61898;BME280;47850;50.274;18.908;2023-02-26T16:18:17;98104.85;;;-0.99;77.70
61898;BME280;47850;50.274;18.908;2023-02-26T16:20:49;98111.23;;;-1.02;77.79
61898;BME280;47850;50.274;18.908;2023-02-26T16:23:22;98113.58;;;-1.07;77.68